Time;durP1;ratioP1;P1;durP2;ratioP2;P2;SDS_P1;SDS_P2;PMS_P1;PMS_P2;Temp;Humidity;BMP_temperature;BMP_pressure;BME280_temperature;BME280_humidity;BME280_pressure;Samples;Min_cycle;Max_cycle;Signal;HPM_P1;HPM_P2
2022/06/14 00:01:47;;;;;;;;;;;11.20;99.90;;;;;;5091966;28;20370;-70
2022/06/14 00:04:13;;;;;;;;;;;11.20;99.90;;;;;;5103404;28;19976;-70
2022/06/14 00:06:40;;;;;;;;;;;11.20;99.90;;;;;;5103540;28;20019;-70
2022/06/14 00:09:08;;;;;;;;;;;11.20;99.90;;;;;;5094059;28;19923;-70
2022/06/14 00:11:37;;;;;;;;;;;11.20;99.90;;;;;;5097300;28;19930;-71
2022/06/14 00:14:05;;;;;;;;;;;11.10;99.90;;;;;;5084697;28;20012;-71
2022/06/14 00:16:32;;;;;;;;;;;11.10;99.90;;;;;;5084920;28;19974;-71
2022/06/14 00:18:58;;;;;;;;;;;11.10;99.90;;;;;;5090908;28;19971;-70
2022/06/14 00:21:25;;;;;;;;;;;11.10;99.90;;;;;;5088422;28;20018;-71
2022/06/14 00:23:52;;;;;;;;;;;11.00;99.90;;;;;;5087634;28;20014;-71
2022/06/14 00:26:20;;;;;;;;;;;11.00;99.90;;;;;;5087037;28;19932;-70
2022/06/14 00:28:47;;;;;;;;;;;10.90;99.90;;;;;;5090083;28;19928;-71
2022/06/14 00:31:15;;;;;;;;;;;10.90;99.90;;;;;;5088541;28;21658;-71
2022/06/14 00:33:42;;;;;;;;;;;10.90;99.90;;;;;;5090066;28;20008;-71
2022/06/14 00:36:10;;;;;;;;;;;10.80;99.90;;;;;;5090859;28;20019;-71
2022/06/14 00:38:37;;;;;;;;;;;10.80;99.90;;;;;;5090146;28;20446;-72
2022/06/14 00:41:05;;;;;;;;;;;10.70;99.90;;;;;;5090707;28;19931;-71
2022/06/14 00:43:33;;;;;;;;;;;10.70;99.90;;;;;;5083115;28;20027;-71
2022/06/14 00:46:21;;;;;;;;;;;10.70;99.90;;;;;;5089236;28;19935;-71
2022/06/14 00:48:50;;;;;;;;;;;10.60;99.90;;;;;;5085849;28;19932;-71
2022/06/14 00:51:19;;;;;;;;;;;10.50;99.90;;;;;;5100382;28;19924;-70
2022/06/14 00:53:49;;;;;;;;;;;10.40;99.90;;;;;;5086110;28;19924;-70
2022/06/14 00:56:17;;;;;;;;;;;10.50;99.90;;;;;;5092296;28;20030;-71
2022/06/14 00:58:49;;;;;;;;;;;10.50;99.90;;;;;;5087256;28;20046;-70
2022/06/14 01:01:17;;;;;;;;;;;10.50;99.90;;;;;;5088430;28;19960;-71
2022/06/14 01:03:48;;;;;;;;;;;10.40;99.90;;;;;;5086307;28;19928;-72
2022/06/14 01:06:17;;;;;;;;;;;10.30;99.90;;;;;;5085515;28;19968;-71
2022/06/14 01:08:47;;;;;;;;;;;10.20;99.90;;;;;;5088286;28;20026;-71
2022/06/14 01:11:17;;;;;;;;;;;10.10;99.90;;;;;;5085579;28;20299;-71
2022/06/14 01:13:43;;;;;;;;;;;10.00;99.90;;;;;;5081062;28;20003;-71
2022/06/14 01:16:12;;;;;;;;;;;10.00;99.90;;;;;;5085683;28;19967;-71
2022/06/14 01:18:40;;;;;;;;;;;9.90;99.90;;;;;;5086752;28;19932;-71
2022/06/14 01:21:06;;;;;;;;;;;9.90;99.90;;;;;;5086066;28;20489;-71
2022/06/14 01:23:35;;;;;;;;;;;10.00;99.90;;;;;;5086445;28;19955;-72
2022/06/14 01:26:07;;;;;;;;;;;10.10;99.90;;;;;;5086304;28;19924;-71
2022/06/14 01:28:34;;;;;;;;;;;10.20;99.90;;;;;;5079057;28;20510;-71
2022/06/14 01:31:01;;;;;;;;;;;10.10;99.90;;;;;;5085566;28;19928;-71
2022/06/14 01:33:29;;;;;;;;;;;10.00;99.90;;;;;;5082798;28;20580;-71
2022/06/14 01:36:13;;;;;;;;;;;9.90;99.90;;;;;;5089263;28;19967;-71
2022/06/14 01:38:42;;;;;;;;;;;9.80;99.90;;;;;;5085227;28;19931;-71
2022/06/14 01:41:12;;;;;;;;;;;9.70;99.90;;;;;;5097692;28;20018;-71
2022/06/14 01:43:47;;;;;;;;;;;9.70;99.90;;;;;;5091197;28;19958;-70
2022/06/14 01:46:21;;;;;;;;;;;9.70;99.90;;;;;;5087977;28;20391;-70
2022/06/14 01:48:51;;;;;;;;;;;9.80;99.90;;;;;;5088990;28;19934;-71
2022/06/14 01:54:13;;;;;;;;;;;9.90;99.90;;;;;;5101124;28;19934;-71
2022/06/14 01:56:42;;;;;;;;;;;9.90;99.90;;;;;;5089604;28;20371;-71
2022/06/14 01:59:13;;;;;;;;;;;9.80;99.90;;;;;;5087493;28;19933;-72
2022/06/14 02:01:45;;;;;;;;;;;9.70;99.90;;;;;;5086837;28;19932;-72
2022/06/14 02:07:01;;;;;;;;;;;9.50;99.90;;;;;;5078180;28;20399;-71
2022/06/14 02:09:34;;;;;;;;;;;9.50;99.90;;;;;;5088463;28;20437;-71
2022/06/14 02:12:01;;;;;;;;;;;9.60;99.90;;;;;;5099483;28;20012;-72
2022/06/14 02:14:31;;;;;;;;;;;9.70;99.90;;;;;;5088934;28;19924;-70
2022/06/14 02:16:59;;;;;;;;;;;9.70;99.90;;;;;;5088789;28;20020;-70
2022/06/14 02:19:30;;;;;;;;;;;9.70;99.90;;;;;;5091929;28;19924;-70
2022/06/14 02:21:59;;;;;;;;;;;9.70;99.90;;;;;;5091591;28;19932;-72
2022/06/14 02:24:28;;;;;;;;;;;9.70;99.90;;;;;;5099207;28;19940;-72
2022/06/14 02:26:57;;;;;;;;;;;9.70;99.90;;;;;;5087878;28;19983;-71
2022/06/14 02:29:27;;;;;;;;;;;9.70;99.90;;;;;;5087055;28;20355;-70
2022/06/14 02:31:55;;;;;;;;;;;9.70;99.90;;;;;;5089238;28;19964;-70
2022/06/14 02:34:26;;;;;;;;;;;9.60;99.90;;;;;;5098497;28;20074;-72
2022/06/14 02:36:55;;;;;;;;;;;9.60;99.90;;;;;;5090174;28;20058;-71
2022/06/14 02:39:24;;;;;;;;;;;9.60;99.90;;;;;;5090520;28;20570;-72
2022/06/14 02:41:55;;;;;;;;;;;9.60;99.90;;;;;;5087934;28;19935;-71
2022/06/14 02:44:25;;;;;;;;;;;9.60;99.90;;;;;;5089842;28;20019;-71
2022/06/14 02:46:54;;;;;;;;;;;9.50;99.90;;;;;;5097649;28;19924;-71
2022/06/14 02:49:24;;;;;;;;;;;9.60;99.90;;;;;;5084231;28;20402;-70
2022/06/14 02:51:55;;;;;;;;;;;9.50;99.90;;;;;;5072151;28;20007;-70
2022/06/14 02:54:23;;;;;;;;;;;9.50;99.90;;;;;;5091947;28;19956;-71
2022/06/14 02:56:54;;;;;;;;;;;9.50;99.90;;;;;;5090566;28;20026;-70
2022/06/14 02:59:25;;;;;;;;;;;9.50;99.90;;;;;;5087856;28;19924;-71
2022/06/14 03:01:54;;;;;;;;;;;9.40;99.90;;;;;;5088207;28;20360;-71
2022/06/14 03:04:24;;;;;;;;;;;9.50;99.90;;;;;;5101136;28;20015;-72
2022/06/14 03:06:53;;;;;;;;;;;9.40;99.90;;;;;;5088194;28;19959;-71
2022/06/14 03:09:22;;;;;;;;;;;9.30;99.90;;;;;;5087758;28;19935;-71
2022/06/14 03:11:52;;;;;;;;;;;9.30;99.90;;;;;;5088319;28;20022;-71
2022/06/14 03:14:25;;;;;;;;;;;9.20;99.90;;;;;;5094178;28;19924;-71
2022/06/14 03:16:57;;;;;;;;;;;9.30;99.90;;;;;;5087712;28;20374;-71
2022/06/14 03:19:26;;;;;;;;;;;9.20;99.90;;;;;;5087575;28;19924;-71
2022/06/14 03:21:55;;;;;;;;;;;9.20;99.90;;;;;;5087945;28;19971;-70
2022/06/14 03:24:29;;;;;;;;;;;9.20;99.90;;;;;;5091187;28;19932;-70
2022/06/14 03:26:58;;;;;;;;;;;9.20;99.90;;;;;;5088646;28;19928;-71
2022/06/14 03:29:31;;;;;;;;;;;9.20;99.90;;;;;;5088387;28;19984;-70
2022/06/14 03:31:59;;;;;;;;;;;9.20;99.90;;;;;;5103990;28;19931;-70
2022/06/14 03:34:29;;;;;;;;;;;9.20;99.90;;;;;;5091188;28;20030;-70
2022/06/14 03:36:56;;;;;;;;;;;9.20;99.90;;;;;;5082590;28;19995;-70
2022/06/14 03:39:24;;;;;;;;;;;9.20;99.90;;;;;;5086714;28;20466;-72
2022/06/14 03:41:53;;;;;;;;;;;9.20;99.90;;;;;;5080644;28;19975;-71
2022/06/14 03:44:20;;;;;;;;;;;9.10;99.90;;;;;;5086341;28;20318;-71
2022/06/14 03:46:51;;;;;;;;;;;9.20;99.90;;;;;;5089810;28;19934;-71
2022/06/14 03:49:21;;;;;;;;;;;9.20;99.90;;;;;;5094749;28;19940;-72
2022/06/14 03:51:53;;;;;;;;;;;9.20;99.90;;;;;;5086362;28;20060;-71
2022/06/14 03:54:43;;;;;;;;;;;9.20;99.90;;;;;;5085292;28;19924;-71
2022/06/14 03:57:14;;;;;;;;;;;9.20;99.90;;;;;;5060248;28;20420;-70
2022/06/14 03:59:50;;;;;;;;;;;9.30;99.90;;;;;;5085853;28;19969;-70
2022/06/14 04:02:21;;;;;;;;;;;9.30;99.90;;;;;;5087237;28;19979;-71
2022/06/14 04:04:51;;;;;;;;;;;9.30;99.90;;;;;;5084806;28;20011;-72
2022/06/14 04:07:23;;;;;;;;;;;9.40;99.90;;;;;;5086200;28;19935;-71
2022/06/14 04:09:53;;;;;;;;;;;9.40;99.90;;;;;;5083272;28;19924;-71
2022/06/14 04:12:25;;;;;;;;;;;9.40;99.90;;;;;;5086724;28;20264;-71
2022/06/14 04:15:02;;;;;;;;;;;9.20;99.90;;;;;;5090569;28;19924;-70
2022/06/14 04:17:37;;;;;;;;;;;9.20;99.90;;;;;;5086857;28;19934;-70
2022/06/14 04:20:07;;;;;;;;;;;9.30;99.90;;;;;;5088440;28;19928;-71
2022/06/14 04:22:40;;;;;;;;;;;9.30;99.90;;;;;;5097699;28;20030;-72
2022/06/14 04:25:15;;;;;;;;;;;9.40;99.90;;;;;;5087596;28;20536;-72
2022/06/14 04:27:46;;;;;;;;;;;9.50;99.90;;;;;;5085787;28;19932;-72
2022/06/14 04:30:16;;;;;;;;;;;9.50;99.90;;;;;;5085342;28;19934;-72
2022/06/14 04:32:48;;;;;;;;;;;9.60;99.90;;;;;;5090870;28;20014;-73
2022/06/14 04:35:16;;;;;;;;;;;9.70;99.90;;;;;;5095046;28;20018;-73
2022/06/14 04:37:45;;;;;;;;;;;9.80;99.90;;;;;;5073930;28;19946;-71
2022/06/14 04:40:13;;;;;;;;;;;9.80;99.90;;;;;;5082234;28;20023;-72
2022/06/14 04:42:43;;;;;;;;;;;9.80;99.90;;;;;;5083309;28;19981;-71
2022/06/14 04:45:12;;;;;;;;;;;9.90;99.90;;;;;;5091628;28;20291;-72
2022/06/14 04:47:42;;;;;;;;;;;10.10;99.90;;;;;;5073186;28;20386;-71
2022/06/14 04:50:13;;;;;;;;;;;10.20;99.90;;;;;;5086725;28;20003;-71
2022/06/14 04:52:42;;;;;;;;;;;10.30;99.90;;;;;;5090399;28;20011;-71
2022/06/14 04:55:12;;;;;;;;;;;10.40;99.90;;;;;;5090090;28;20002;-71
2022/06/14 04:57:43;;;;;;;;;;;10.50;99.90;;;;;;5090683;28;20518;-71
2022/06/14 05:00:11;;;;;;;;;;;10.60;99.90;;;;;;5077284;28;19975;-71
2022/06/14 05:02:40;;;;;;;;;;;10.70;99.90;;;;;;5084225;28;19924;-71
2022/06/14 05:05:09;;;;;;;;;;;10.80;99.90;;;;;;5081988;28;19975;-71
2022/06/14 05:07:40;;;;;;;;;;;10.90;99.90;;;;;;5089522;28;19928;-71
2022/06/14 05:10:08;;;;;;;;;;;10.90;99.90;;;;;;5095761;28;19977;-71
2022/06/14 05:12:37;;;;;;;;;;;11.10;99.90;;;;;;5088340;28;20036;-71
2022/06/14 05:15:08;;;;;;;;;;;11.20;99.90;;;;;;5091363;28;19928;-71
2022/06/14 05:17:38;;;;;;;;;;;11.20;99.90;;;;;;5080013;28;19929;-71
2022/06/14 05:20:07;;;;;;;;;;;11.30;99.90;;;;;;5091594;28;20350;-71
2022/06/14 05:22:36;;;;;;;;;;;11.40;99.90;;;;;;5088961;28;19951;-70
2022/06/14 05:25:06;;;;;;;;;;;11.50;99.90;;;;;;5107232;28;20022;-71
2022/06/14 05:27:43;;;;;;;;;;;11.60;99.90;;;;;;5089226;28;20007;-71
2022/06/14 05:30:14;;;;;;;;;;;11.60;99.90;;;;;;5095249;28;19924;-71
2022/06/14 05:32:46;;;;;;;;;;;11.70;99.90;;;;;;5087054;28;19935;-71
2022/06/14 05:35:20;;;;;;;;;;;11.60;99.90;;;;;;5095175;28;19924;-71
2022/06/14 05:37:53;;;;;;;;;;;11.70;99.90;;;;;;5095030;28;19931;-71
2022/06/14 05:40:25;;;;;;;;;;;11.80;99.90;;;;;;5097397;28;20007;-71
2022/06/14 05:42:54;;;;;;;;;;;11.90;99.90;;;;;;5074416;28;20023;-71
2022/06/14 05:45:23;;;;;;;;;;;12.00;99.90;;;;;;5091179;28;19971;-72
2022/06/14 05:47:51;;;;;;;;;;;12.10;99.90;;;;;;5087334;28;19978;-72
2022/06/14 05:50:20;;;;;;;;;;;12.30;99.90;;;;;;5073273;28;19932;-72
2022/06/14 05:52:50;;;;;;;;;;;12.40;99.90;;;;;;5078650;28;20409;-70
2022/06/14 05:55:21;;;;;;;;;;;12.50;99.90;;;;;;5083191;28;20011;-69
2022/06/14 05:57:51;;;;;;;;;;;12.70;99.90;;;;;;5071879;28;19932;-68
2022/06/14 06:00:20;;;;;;;;;;;13.00;99.90;;;;;;5085139;28;20015;-69
2022/06/14 06:02:50;;;;;;;;;;;15.40;99.90;;;;;;5075631;28;19959;-69
2022/06/14 06:05:18;;;;;;;;;;;18.30;93.20;;;;;;5069638;28;19924;-68
2022/06/14 06:07:49;;;;;;;;;;;20.50;71.80;;;;;;5071131;28;19977;-69
2022/06/14 06:10:17;;;;;;;;;;;21.90;55.80;;;;;;5081546;28;19960;-69
2022/06/14 06:12:46;;;;;;;;;;;22.20;47.10;;;;;;5092199;28;19971;-70
2022/06/14 06:15:16;;;;;;;;;;;20.60;47.60;;;;;;5096886;28;19993;-69
2022/06/14 06:17:45;;;;;;;;;;;21.60;45.50;;;;;;5099272;28;19936;-69
2022/06/14 06:20:16;;;;;;;;;;;23.20;41.50;;;;;;5112217;28;19928;-69
2022/06/14 06:22:47;;;;;;;;;;;23.70;36.70;;;;;;5090071;28;19924;-68
2022/06/14 06:25:15;;;;;;;;;;;21.00;41.10;;;;;;5085472;28;19967;-68
2022/06/14 06:27:48;;;;;;;;;;;19.60;44.70;;;;;;5093639;28;19924;-70
2022/06/14 06:30:19;;;;;;;;;;;18.60;48.70;;;;;;5094515;28;19924;-69
2022/06/14 06:32:45;;;;;;;;;;;18.60;48.00;;;;;;5093227;28;19924;-71
2022/06/14 06:35:13;;;;;;;;;;;18.70;48.30;;;;;;5103889;28;20019;-69
2022/06/14 06:37:42;;;;;;;;;;;20.30;47.10;;;;;;5089150;28;19930;-71
2022/06/14 06:40:13;;;;;;;;;;;20.90;41.10;;;;;;5110347;28;20010;-70
2022/06/14 06:42:40;;;;;;;;;;;20.70;42.40;;;;;;5093759;28;20026;-71
2022/06/14 06:45:09;;;;;;;;;;;22.00;41.90;;;;;;5098815;28;19978;-71
2022/06/14 06:47:39;;;;;;;;;;;24.10;35.80;;;;;;5097256;28;20023;-71
2022/06/14 06:50:15;;;;;;;;;;;24.60;32.70;;;;;;5115280;28;20019;-71
2022/06/14 06:52:46;;;;;;;;;;;24.70;29.90;;;;;;5086526;28;20371;-72
2022/06/14 06:55:14;;;;;;;;;;;22.30;33.10;;;;;;5092338;28;19923;-71
2022/06/14 06:57:43;;;;;;;;;;;21.70;34.20;;;;;;5091847;28;19924;-72
2022/06/14 07:00:12;;;;;;;;;;;21.20;34.80;;;;;;5099620;28;20026;-71
2022/06/14 07:02:43;;;;;;;;;;;20.40;36.10;;;;;;5099069;28;20357;-72
2022/06/14 07:05:14;;;;;;;;;;;22.30;34.10;;;;;;5098226;28;20015;-72
2022/06/14 07:07:45;;;;;;;;;;;23.80;30.30;;;;;;5094589;28;20018;-72
2022/06/14 07:10:17;;;;;;;;;;;22.10;31.90;;;;;;5104142;28;19936;-72
2022/06/14 07:12:45;;;;;;;;;;;23.20;32.10;;;;;;5092171;28;19962;-72
2022/06/14 07:15:14;;;;;;;;;;;23.60;29.10;;;;;;5093749;28;20078;-72
2022/06/14 07:17:47;;;;;;;;;;;23.80;28.50;;;;;;5083534;28;20023;-70
2022/06/14 07:20:17;;;;;;;;;;;22.90;26.60;;;;;;5084281;28;19924;-72
2022/06/14 07:22:45;;;;;;;;;;;23.60;27.80;;;;;;5081397;28;20099;-69
2022/06/14 07:25:15;;;;;;;;;;;24.00;26.50;;;;;;5087428;28;19931;-70
2022/06/14 07:27:45;;;;;;;;;;;23.80;26.80;;;;;;5085113;28;19930;-70
2022/06/14 07:30:14;;;;;;;;;;;26.00;22.70;;;;;;5090976;28;20011;-70
2022/06/14 07:32:44;;;;;;;;;;;26.10;21.90;;;;;;5088905;28;19955;-71
2022/06/14 07:35:13;;;;;;;;;;;26.90;19.70;;;;;;5077643;28;19924;-71
2022/06/14 07:37:42;;;;;;;;;;;24.40;24.50;;;;;;5083296;28;20035;-71
2022/06/14 07:40:14;;;;;;;;;;;25.90;21.90;;;;;;5088696;28;19928;-71
2022/06/14 07:42:43;;;;;;;;;;;24.70;21.70;;;;;;5083502;28;19974;-70
2022/06/14 07:45:18;;;;;;;;;;;25.30;21.50;;;;;;5082936;28;19930;-71
2022/06/14 07:47:48;;;;;;;;;;;25.40;19.20;;;;;;5083960;28;20572;-72
2022/06/14 07:50:18;;;;;;;;;;;25.90;18.50;;;;;;5087138;28;20355;-71
2022/06/14 07:52:47;;;;;;;;;;;25.50;18.60;;;;;;5087028;28;19931;-71
2022/06/14 07:55:16;;;;;;;;;;;27.30;16.20;;;;;;5093292;28;19931;-71
2022/06/14 07:57:45;;;;;;;;;;;27.50;15.00;;;;;;5075426;28;20319;-71
2022/06/14 08:03:00;;;;;;;;;;;28.00;12.80;;;;;;5086765;28;19931;-72
2022/06/14 08:05:31;;;;;;;;;;;24.10;17.00;;;;;;5097567;28;19924;-70
2022/06/14 08:07:58;;;;;;;;;;;25.80;15.30;;;;;;5085549;28;19925;-72
2022/06/14 08:10:28;;;;;;;;;;;26.20;14.80;;;;;;5084044;28;19947;-72
2022/06/14 08:12:58;;;;;;;;;;;25.30;14.40;;;;;;5083313;28;19959;-70
2022/06/14 08:15:26;;;;;;;;;;;22.60;18.40;;;;;;5102347;28;19977;-70
2022/06/14 08:17:57;;;;;;;;;;;22.60;19.10;;;;;;5085528;28;19977;-70
2022/06/14 08:20:26;;;;;;;;;;;23.50;18.50;;;;;;5072806;28;19932;-70
2022/06/14 08:22:56;;;;;;;;;;;24.00;18.20;;;;;;5080190;28;19924;-68
2022/06/14 08:25:24;;;;;;;;;;;22.20;20.10;;;;;;5085041;28;20034;-69
2022/06/14 08:27:53;;;;;;;;;;;24.40;17.80;;;;;;5084071;28;19928;-69
2022/06/14 08:30:23;;;;;;;;;;;26.10;15.80;;;;;;5089000;28;19932;-69
2022/06/14 08:32:52;;;;;;;;;;;24.30;16.70;;;;;;5084175;28;19924;-69
2022/06/14 08:35:23;;;;;;;;;;;25.50;16.10;;;;;;5086185;28;19959;-68
2022/06/14 08:37:53;;;;;;;;;;;25.10;16.10;;;;;;5083692;28;19967;-70
2022/06/14 08:40:33;;;;;;;;;;;26.30;15.10;;;;;;5080774;28;19985;-69
2022/06/14 08:43:03;;;;;;;;;;;28.00;12.70;;;;;;5086028;28;20292;-69
2022/06/14 08:45:39;;;;;;;;;;;28.80;11.00;;;;;;5086141;28;19968;-70
2022/06/14 08:48:08;;;;;;;;;;;29.10;10.10;;;;;;5082278;28;19968;-69
2022/06/14 08:50:46;;;;;;;;;;;28.70;10.20;;;;;;5084313;28;19932;-69
2022/06/14 08:53:22;;;;;;;;;;;28.90;9.30;;;;;;5086434;28;19928;-69
2022/06/14 08:55:58;;;;;;;;;;;28.90;9.30;;;;;;5072572;28;19929;-69
2022/06/14 08:58:41;;;;;;;;;;;27.30;10.00;;;;;;5084386;28;19924;-69
2022/06/14 09:01:12;;;;;;;;;;;23.10;16.50;;;;;;5085008;28;19924;-69
2022/06/14 09:03:54;;;;;;;;;;;23.20;16.40;;;;;;5078915;28;19928;-69
2022/06/14 09:06:54;;;;;;;;;;;24.90;14.50;;;;;;5077689;28;20034;-69
2022/06/14 09:09:41;;;;;;;;;;;26.70;12.50;;;;;;5082772;28;19985;-69
2022/06/14 09:12:23;;;;;;;;;;;26.00;12.90;;;;;;5083874;28;19969;-69
2022/06/14 09:15:08;;;;;;;;;;;27.30;11.80;;;;;;5081824;28;19932;-68
2022/06/14 09:17:51;;;;;;;;;;;23.50;16.00;;;;;;5087128;28;19964;-69
2022/06/14 09:20:26;;;;;;;;;;;21.30;18.90;;;;;;5081632;28;19948;-69
2022/06/14 09:22:58;;;;;;;;;;;20.50;19.70;;;;;;5075326;28;19932;-68
2022/06/14 09:25:33;;;;;;;;;;;20.70;21.90;;;;;;5081986;28;20014;-64
2022/06/14 09:28:07;;;;;;;;;;;21.00;21.90;;;;;;5080528;28;19936;-68
2022/06/14 09:30:40;;;;;;;;;;;21.40;19.90;;;;;;5082474;28;20027;-68
2022/06/14 09:33:21;;;;;;;;;;;20.50;21.20;;;;;;5084404;28;20030;-68
2022/06/14 09:36:11;;;;;;;;;;;21.00;20.60;;;;;;5086434;28;20020;-69
2022/06/14 09:38:56;;;;;;;;;;;20.90;21.50;;;;;;5087418;22;20027;-68
2022/06/14 09:41:31;;;;;;;;;;;21.20;20.80;;;;;;5083995;28;19972;-68
2022/06/14 09:44:05;;;;;;;;;;;21.70;20.90;;;;;;5066277;28;19986;-67
2022/06/14 09:46:40;;;;;;;;;;;21.80;20.20;;;;;;5057698;28;20023;-68
2022/06/14 09:49:27;;;;;;;;;;;21.40;21.40;;;;;;5062345;28;19928;-68
2022/06/14 09:52:13;;;;;;;;;;;20.80;21.30;;;;;;5060646;28;20453;-68
2022/06/14 09:54:54;;;;;;;;;;;20.50;21.70;;;;;;5069618;28;19924;-68
2022/06/14 09:57:33;;;;;;;;;;;21.30;22.50;;;;;;5063299;28;19959;-68
2022/06/14 10:00:07;;;;;;;;;;;23.70;19.10;;;;;;5060541;28;19924;-69
2022/06/14 10:02:38;;;;;;;;;;;23.40;18.70;;;;;;5058783;28;20018;-68
2022/06/14 10:05:24;;;;;;;;;;;23.00;19.80;;;;;;5068696;28;19971;-69
2022/06/14 10:08:03;;;;;;;;;;;22.20;20.60;;;;;;5064095;28;19970;-69
2022/06/14 10:10:46;;;;;;;;;;;22.00;20.40;;;;;;5062424;28;20009;-69
2022/06/14 10:13:28;;;;;;;;;;;23.60;18.20;;;;;;5068386;28;19925;-68
2022/06/14 10:15:57;;;;;;;;;;;22.70;19.10;;;;;;5064016;28;19967;-68
2022/06/14 10:18:35;;;;;;;;;;;21.00;20.50;;;;;;5062220;28;19924;-69
2022/06/14 10:21:07;;;;;;;;;;;20.50;23.50;;;;;;5068496;28;20091;-68
2022/06/14 10:23:52;;;;;;;;;;;19.80;24.70;;;;;;5064412;28;20311;-69
2022/06/14 10:29:21;;;;;;;;;;;20.10;23.80;;;;;;5006576;28;19992;-68
2022/06/14 10:31:55;;;;;;;;;;;20.10;22.60;;;;;;5061390;28;20019;-68
2022/06/14 10:34:23;;;;;;;;;;;20.00;23.80;;;;;;5066258;28;19993;-69
2022/06/14 10:37:00;;;;;;;;;;;19.90;23.70;;;;;;5061085;28;20015;-68
2022/06/14 10:39:45;;;;;;;;;;;19.70;23.80;;;;;;5054424;28;19925;-69
2022/06/14 10:42:16;;;;;;;;;;;20.10;23.70;;;;;;5065353;28;19925;-69
2022/06/14 10:44:48;;;;;;;;;;;20.40;23.80;;;;;;5065617;28;20019;-69
2022/06/14 10:47:22;;;;;;;;;;;20.00;24.80;;;;;;5056377;28;19952;-67
2022/06/14 10:50:04;;;;;;;;;;;20.40;24.40;;;;;;5063870;28;20411;-77
2022/06/14 10:52:43;;;;;;;;;;;20.20;23.20;;;;;;5055624;28;20019;-75
2022/06/14 10:55:17;;;;;;;;;;;20.00;24.00;;;;;;5066493;28;20018;-78
2022/06/14 10:57:53;;;;;;;;;;;20.10;23.10;;;;;;5060962;28;20015;-77
2022/06/14 11:00:25;;;;;;;;;;;19.70;23.80;;;;;;5066759;28;20102;-77
2022/06/14 11:03:05;;;;;;;;;;;19.80;24.20;;;;;;5060057;28;20228;-77
2022/06/14 11:05:38;;;;;;;;;;;20.20;25.00;;;;;;5063403;28;19958;-69
2022/06/14 11:08:13;;;;;;;;;;;19.70;23.30;;;;;;5060254;28;20275;-69
2022/06/14 11:10:50;;;;;;;;;;;19.90;25.10;;;;;;5064039;28;20488;-68
2022/06/14 11:13:20;;;;;;;;;;;20.10;23.90;;;;;;5062828;28;20445;-68
2022/06/14 11:15:50;;;;;;;;;;;20.20;25.30;;;;;;5061660;28;19963;-68
2022/06/14 11:18:29;;;;;;;;;;;20.00;24.20;;;;;;5063854;28;19998;-68
2022/06/14 11:21:00;;;;;;;;;;;20.10;24.20;;;;;;5052883;28;19924;-68
2022/06/14 11:23:34;;;;;;;;;;;20.30;24.40;;;;;;5065991;28;19966;-68
2022/06/14 11:26:06;;;;;;;;;;;20.70;23.10;;;;;;5066536;28;19924;-68
2022/06/14 11:28:36;;;;;;;;;;;21.10;22.90;;;;;;5069102;28;19937;-69
2022/06/14 11:31:08;;;;;;;;;;;21.30;22.70;;;;;;5067551;28;19928;-68
2022/06/14 11:33:42;;;;;;;;;;;20.50;23.70;;;;;;5066304;28;19975;-69
2022/06/14 11:36:24;;;;;;;;;;;20.20;23.70;;;;;;5067928;28;20376;-70
2022/06/14 11:39:03;;;;;;;;;;;20.20;24.10;;;;;;5062721;28;19963;-69
2022/06/14 11:41:35;;;;;;;;;;;20.50;24.10;;;;;;5066667;28;19933;-69
2022/06/14 11:44:18;;;;;;;;;;;20.40;23.80;;;;;;5062846;28;19925;-69
2022/06/14 11:46:50;;;;;;;;;;;20.80;23.60;;;;;;5065528;28;19931;-68
2022/06/14 11:49:20;;;;;;;;;;;21.20;24.50;;;;;;5061342;28;19964;-67
2022/06/14 11:51:51;;;;;;;;;;;20.40;23.40;;;;;;5058638;28;19971;-66
2022/06/14 11:54:22;;;;;;;;;;;20.50;23.80;;;;;;5062562;28;19932;-66
2022/06/14 11:56:56;;;;;;;;;;;20.20;24.60;;;;;;5062965;28;20011;-66
2022/06/14 11:59:31;;;;;;;;;;;20.00;23.90;;;;;;5059193;28;19931;-67
2022/06/14 12:02:03;;;;;;;;;;;19.80;24.70;;;;;;5061497;28;19925;-67
2022/06/14 12:04:38;;;;;;;;;;;20.10;23.60;;;;;;5076863;28;20012;-67
2022/06/14 12:07:10;;;;;;;;;;;20.50;23.00;;;;;;5058910;28;20352;-67
2022/06/14 12:09:45;;;;;;;;;;;20.80;23.10;;;;;;5068500;28;19979;-68
2022/06/14 12:12:16;;;;;;;;;;;20.80;22.60;;;;;;5069002;28;20376;-69
2022/06/14 12:14:51;;;;;;;;;;;21.30;23.10;;;;;;5067255;28;19975;-68
2022/06/14 12:17:22;;;;;;;;;;;20.90;22.50;;;;;;5062380;28;19972;-68
2022/06/14 12:19:53;;;;;;;;;;;20.60;23.20;;;;;;5059043;28;20341;-67
2022/06/14 12:22:28;;;;;;;;;;;20.60;24.40;;;;;;5065780;28;20286;-68
2022/06/14 12:27:44;;;;;;;;;;;20.50;23.70;;;;;;5057365;28;19932;-67
2022/06/14 12:30:12;;;;;;;;;;;20.60;23.30;;;;;;5057528;28;19982;-67
2022/06/14 12:32:40;;;;;;;;;;;20.80;23.80;;;;;;5061192;28;20012;-67
2022/06/14 12:35:11;;;;;;;;;;;20.30;24.00;;;;;;5068191;28;19925;-66
2022/06/14 12:37:42;;;;;;;;;;;20.50;24.20;;;;;;5051067;28;19979;-66
2022/06/14 12:40:13;;;;;;;;;;;20.40;22.60;;;;;;5065157;28;19985;-66
2022/06/14 12:42:42;;;;;;;;;;;21.10;22.30;;;;;;5052875;28;20391;-66
2022/06/14 12:45:12;;;;;;;;;;;21.40;22.70;;;;;;5050125;28;19979;-66
2022/06/14 12:47:43;;;;;;;;;;;21.20;22.30;;;;;;5061049;28;20024;-66
2022/06/14 12:50:13;;;;;;;;;;;21.40;23.60;;;;;;5063211;28;20484;-66
2022/06/14 12:52:43;;;;;;;;;;;21.10;22.40;;;;;;5051607;28;20020;-66
2022/06/14 12:55:17;;;;;;;;;;;21.00;23.50;;;;;;5066650;28;20397;-66
2022/06/14 12:57:50;;;;;;;;;;;21.10;22.50;;;;;;5058027;28;20353;-66
2022/06/14 13:00:22;;;;;;;;;;;20.80;22.80;;;;;;5070654;28;19970;-66
2022/06/14 13:02:52;;;;;;;;;;;21.10;22.00;;;;;;5062869;28;19924;-67
2022/06/14 13:05:21;;;;;;;;;;;20.90;22.00;;;;;;5060672;28;19960;-67
2022/06/14 13:07:55;;;;;;;;;;;21.40;22.30;;;;;;5059954;28;19929;-67
2022/06/14 13:10:32;;;;;;;;;;;22.00;21.20;;;;;;5063324;28;20363;-66
2022/06/14 13:13:17;;;;;;;;;;;22.10;21.00;;;;;;5062010;28;20441;-66
2022/06/14 13:15:49;;;;;;;;;;;21.30;20.30;;;;;;5043616;28;19925;-66
2022/06/14 13:18:25;;;;;;;;;;;21.40;20.50;;;;;;5066266;28;19995;-66
2022/06/14 13:20:56;;;;;;;;;;;21.50;22.80;;;;;;5062638;28;19925;-66
2022/06/14 13:23:28;;;;;;;;;;;21.90;21.20;;;;;;5055455;28;20028;-66
2022/06/14 13:26:10;;;;;;;;;;;21.50;20.30;;;;;;5052706;28;19975;-66
2022/06/14 13:28:47;;;;;;;;;;;21.60;20.30;;;;;;5058413;28;19978;-66
2022/06/14 13:31:24;;;;;;;;;;;21.50;20.00;;;;;;5068911;28;19978;-67
2022/06/14 13:33:55;;;;;;;;;;;21.50;19.80;;;;;;5068142;28;19935;-67
2022/06/14 13:36:24;;;;;;;;;;;21.50;19.80;;;;;;5074875;28;19972;-66
2022/06/14 13:38:55;;;;;;;;;;;21.80;19.40;;;;;;5069221;28;19928;-68
2022/06/14 13:41:27;;;;;;;;;;;21.50;19.40;;;;;;5064103;28;19929;-68
2022/06/14 13:44:01;;;;;;;;;;;21.40;20.00;;;;;;5058837;28;20012;-68
2022/06/14 13:46:31;;;;;;;;;;;21.60;19.50;;;;;;5058745;28;19979;-66
2022/06/14 13:49:02;;;;;;;;;;;21.80;18.80;;;;;;5054404;28;19947;-68
2022/06/14 13:51:32;;;;;;;;;;;21.90;19.60;;;;;;5061298;28;19928;-67
2022/06/14 13:54:01;;;;;;;;;;;22.20;17.40;;;;;;5060407;28;20362;-67
2022/06/14 13:56:35;;;;;;;;;;;21.90;18.20;;;;;;5063393;28;20004;-67
2022/06/14 13:59:06;;;;;;;;;;;22.40;17.90;;;;;;5060637;28;20300;-67
2022/06/14 14:01:36;;;;;;;;;;;22.10;18.70;;;;;;5062318;28;19978;-66
2022/06/14 14:04:07;;;;;;;;;;;22.00;19.00;;;;;;5056525;28;19999;-67
2022/06/14 14:06:37;;;;;;;;;;;22.00;18.70;;;;;;5068674;28;19985;-67
2022/06/14 14:09:14;;;;;;;;;;;22.00;19.40;;;;;;5064828;28;20414;-67
2022/06/14 14:11:49;;;;;;;;;;;22.40;19.90;;;;;;5060381;28;19935;-67
2022/06/14 14:14:25;;;;;;;;;;;21.80;20.40;;;;;;5059328;28;20026;-67
2022/06/14 14:16:55;;;;;;;;;;;21.50;19.40;;;;;;5065650;28;20340;-67
2022/06/14 14:19:26;;;;;;;;;;;21.40;19.60;;;;;;5067896;28;20507;-67
2022/06/14 14:21:57;;;;;;;;;;;21.80;18.70;;;;;;5070333;28;19928;-67
2022/06/14 14:24:32;;;;;;;;;;;21.50;19.20;;;;;;5059684;28;19928;-67
2022/06/14 14:27:02;;;;;;;;;;;21.70;20.00;;;;;;5068263;28;20391;-67
2022/06/14 14:29:32;;;;;;;;;;;21.90;20.50;;;;;;5068320;28;19924;-67
2022/06/14 14:32:01;;;;;;;;;;;21.60;20.00;;;;;;5056131;28;20007;-67
2022/06/14 14:34:30;;;;;;;;;;;21.60;19.00;;;;;;5064854;28;20459;-69
2022/06/14 14:37:02;;;;;;;;;;;21.50;19.80;;;;;;5055393;28;19928;-67
2022/06/14 14:39:35;;;;;;;;;;;21.60;20.80;;;;;;5066333;28;20020;-68
2022/06/14 14:42:05;;;;;;;;;;;22.40;20.00;;;;;;5069918;28;19924;-68
2022/06/14 14:44:36;;;;;;;;;;;22.50;17.80;;;;;;5066121;28;20012;-68
2022/06/14 14:47:07;;;;;;;;;;;22.40;19.50;;;;;;5059613;28;20024;-66
2022/06/14 14:49:38;;;;;;;;;;;21.80;18.40;;;;;;5066473;28;19932;-67
2022/06/14 14:52:20;;;;;;;;;;;22.00;19.20;;;;;;5053148;28;19963;-65
2022/06/14 14:54:50;;;;;;;;;;;22.10;19.90;;;;;;5055018;28;19971;-66
2022/06/14 14:57:21;;;;;;;;;;;22.00;19.00;;;;;;5051176;28;20024;-66
2022/06/14 14:59:52;;;;;;;;;;;22.20;18.50;;;;;;5056821;28;19935;-66
2022/06/14 15:05:23;;;;;;;;;;;22.00;18.70;;;;;;5058828;28;19952;-67